createdAt,value
2018-06-24T00:02:06.643Z,2.50
2018-06-24T00:04:36.716Z,2.57
2018-06-24T00:07:06.478Z,2.83
2018-06-24T00:09:36.393Z,2.53
2018-06-24T00:12:06.358Z,2.83
2018-06-24T00:14:36.231Z,2.30
2018-06-24T00:17:06.029Z,2.53
2018-06-24T00:19:35.954Z,2.70
2018-06-24T00:22:06.001Z,2.67
2018-06-24T00:24:35.882Z,2.50
2018-06-24T00:27:05.832Z,2.80
2018-06-24T00:29:35.785Z,2.70
2018-06-24T00:32:05.737Z,3.20
2018-06-24T00:34:35.610Z,3.00
2018-06-24T00:37:06.004Z,2.70
2018-06-24T00:39:35.988Z,3.07
2018-06-24T00:42:05.907Z,2.53
2018-06-24T00:44:35.779Z,2.93
2018-06-24T00:47:05.618Z,2.43
2018-06-24T00:49:35.497Z,2.40
2018-06-24T00:52:05.361Z,2.43
2018-06-24T00:54:35.498Z,2.73
2018-06-24T00:57:05.282Z,3.10
2018-06-24T00:59:45.610Z,3.10
2018-06-24T01:02:15.363Z,2.70
2018-06-24T01:04:45.243Z,2.70
2018-06-24T01:07:15.158Z,2.47
2018-06-24T01:09:45.026Z,3.00
2018-06-24T01:12:14.818Z,3.53
2018-06-24T01:14:44.752Z,3.20
2018-06-24T01:17:14.652Z,3.03
2018-06-24T01:19:44.579Z,3.00
2018-06-24T01:22:14.482Z,2.93
2018-06-24T01:24:44.471Z,3.03
2018-06-24T01:27:14.173Z,3.30
2018-06-24T01:29:43.992Z,2.90
2018-06-24T01:32:13.770Z,3.03
2018-06-24T01:34:43.711Z,2.60
2018-06-24T01:37:13.538Z,2.90
2018-06-24T01:39:43.338Z,2.97
2018-06-24T01:42:13.017Z,3.50
2018-06-24T01:44:42.904Z,2.90
2018-06-24T01:47:12.622Z,3.50
2018-06-24T01:49:42.583Z,3.20
2018-06-24T01:52:12.473Z,3.20
2018-06-24T01:54:42.344Z,3.07
2018-06-24T01:57:12.308Z,2.90
2018-06-24T01:59:42.957Z,3.53
2018-06-24T02:02:12.760Z,3.20
2018-06-24T02:04:42.778Z,3.37
2018-06-24T02:07:12.556Z,3.07
2018-06-24T02:09:42.627Z,3.50
2018-06-24T02:12:12.395Z,3.63
2018-06-24T02:14:42.284Z,4.17
2018-06-24T02:17:12.103Z,3.30
2018-06-24T02:19:42.203Z,3.20
2018-06-24T02:22:12.008Z,2.97
2018-06-24T02:24:41.945Z,3.47
2018-06-24T02:27:12.026Z,3.70
2018-06-24T02:29:42.125Z,4.00
2018-06-24T02:32:12.070Z,3.47
2018-06-24T02:34:42.283Z,3.57
2018-06-24T02:37:12.241Z,3.67
2018-06-24T02:39:42.603Z,3.27
2018-06-24T02:42:12.524Z,3.53
2018-06-24T02:44:42.535Z,3.73
2018-06-24T02:47:12.288Z,4.10
2018-06-24T02:49:42.250Z,4.30
2018-06-24T02:52:12.075Z,3.60
2018-06-24T02:54:41.843Z,3.63
2018-06-24T02:57:11.660Z,3.20
2018-06-24T02:59:41.847Z,3.70
2018-06-24T03:02:11.652Z,3.63
2018-06-24T03:04:41.649Z,3.83
2018-06-24T03:07:11.621Z,3.33
2018-06-24T03:09:41.543Z,3.80
2018-06-24T03:12:11.429Z,3.63
2018-06-24T03:14:41.198Z,4.27
2018-06-24T03:17:10.963Z,3.80
2018-06-24T03:19:41.680Z,3.67
2018-06-24T03:22:11.763Z,3.70
2018-06-24T03:24:41.991Z,3.90
2018-06-24T03:27:11.664Z,4.00
2018-06-24T03:29:41.658Z,3.90
2018-06-24T03:32:11.446Z,4.27
2018-06-24T03:34:41.208Z,4.03
2018-06-24T03:37:11.067Z,4.00
2018-06-24T03:39:41.028Z,3.30
2018-06-24T03:42:10.792Z,3.77
2018-06-24T03:44:40.732Z,3.70
2018-06-24T03:47:10.659Z,4.13
2018-06-24T03:49:40.501Z,3.77
2018-06-24T03:52:10.421Z,3.70
2018-06-24T03:54:40.257Z,3.80
2018-06-24T03:57:10.068Z,3.63
2018-06-24T03:59:40.107Z,4.20
2018-06-24T04:02:09.908Z,3.80
2018-06-24T04:04:40.364Z,3.50
2018-06-24T04:07:10.150Z,3.70
2018-06-24T04:09:39.978Z,3.50
2018-06-24T04:12:09.838Z,3.30
2018-06-24T04:14:39.698Z,3.67
2018-06-24T04:17:09.380Z,3.70
2018-06-24T04:19:39.247Z,3.57
2018-06-24T04:22:08.959Z,3.60
2018-06-24T04:24:40.230Z,3.67
2018-06-24T04:27:10.926Z,4.30
2018-06-24T04:29:44.516Z,3.90
2018-06-24T04:32:16.077Z,3.87
2018-06-24T04:34:46.041Z,3.80
2018-06-24T04:37:15.768Z,3.57
2018-06-24T04:39:45.272Z,3.70
2018-06-24T04:42:14.731Z,3.70
2018-06-24T04:44:44.145Z,3.77
2018-06-24T04:47:13.753Z,3.97
2018-06-24T04:49:43.562Z,3.33
2018-06-24T04:52:12.753Z,3.30
2018-06-24T04:54:42.222Z,3.60
2018-06-24T04:57:11.753Z,3.43
2018-06-24T04:59:41.412Z,3.70
2018-06-24T05:02:11.135Z,3.37
2018-06-24T05:04:40.577Z,3.17
2018-06-24T05:07:10.236Z,3.50
2018-06-24T05:09:39.919Z,3.37
2018-06-24T05:12:09.524Z,3.57
2018-06-24T05:14:39.099Z,3.83
2018-06-24T05:17:08.659Z,3.63
2018-06-24T05:19:38.319Z,4.00
2018-06-24T05:22:07.899Z,3.83
2018-06-24T05:24:37.587Z,3.30
2018-06-24T05:27:07.119Z,3.30
2018-06-24T05:29:36.879Z,3.60
2018-06-24T05:32:06.439Z,3.17
2018-06-24T05:34:36.158Z,3.40
2018-06-24T05:37:06.235Z,3.60
2018-06-24T05:39:35.823Z,3.40
2018-06-24T05:42:05.782Z,3.70
2018-06-24T05:44:35.480Z,3.23
2018-06-24T05:47:04.708Z,3.20
2018-06-24T05:49:34.363Z,3.27
2018-06-24T05:52:04.063Z,3.47
2018-06-24T05:54:34.598Z,3.40
2018-06-24T05:57:04.199Z,3.57
2018-06-24T05:59:35.289Z,3.37
2018-06-24T06:02:04.781Z,3.13
2018-06-24T06:04:36.206Z,3.40
2018-06-24T06:07:06.559Z,3.00
2018-06-24T06:09:37.258Z,2.83
2018-06-24T06:12:06.778Z,3.13
2018-06-24T06:14:37.016Z,2.80
2018-06-24T06:17:06.757Z,3.30
2018-06-24T06:19:36.318Z,3.13
2018-06-24T06:22:06.008Z,13.63
2018-06-24T06:24:35.422Z,2.63
2018-06-24T06:27:05.042Z,2.57
2018-06-24T06:29:34.621Z,2.70
2018-06-24T06:32:04.159Z,3.23
2018-06-24T06:34:33.568Z,3.00
2018-06-24T06:37:03.903Z,3.30
2018-06-24T06:39:33.982Z,3.40
2018-06-24T06:42:04.517Z,3.30
2018-06-24T06:44:34.141Z,3.33
2018-06-24T06:47:03.755Z,3.23
2018-06-24T06:49:33.384Z,3.13
2018-06-24T06:52:02.956Z,2.90
2018-06-24T06:54:32.939Z,2.50
2018-06-24T06:57:02.516Z,2.40
2018-06-24T06:59:32.235Z,2.30
2018-06-24T07:02:02.162Z,2.43
2018-06-24T07:04:31.638Z,2.37
2018-06-24T07:07:01.193Z,2.63
2018-06-24T07:09:30.773Z,2.52
2018-06-24T07:12:00.558Z,2.58
2018-06-24T07:14:36.158Z,2.40
2018-06-24T07:17:06.029Z,2.17
2018-06-24T07:19:35.781Z,2.35
2018-06-24T07:22:05.663Z,2.70
2018-06-24T07:24:35.281Z,2.52
2018-06-24T07:27:05.926Z,2.75
2018-06-24T07:29:35.603Z,2.52
2018-06-24T07:32:05.383Z,2.45
2018-06-24T07:34:34.884Z,2.85
2018-06-24T07:37:04.847Z,2.37
2018-06-24T07:39:34.630Z,2.62
2018-06-24T07:42:04.700Z,2.80
2018-06-24T07:44:34.350Z,2.50
2018-06-24T07:47:04.238Z,2.33
2018-06-24T07:49:33.993Z,2.37
2018-06-24T07:52:03.750Z,2.40
2018-06-24T07:54:33.613Z,2.42
2018-06-24T07:57:03.597Z,2.95
2018-06-24T07:59:33.343Z,2.90
2018-06-24T08:02:03.308Z,2.85
2018-06-24T08:04:33.198Z,2.47
2018-06-24T08:07:03.052Z,2.47
2018-06-24T08:09:33.027Z,2.92
2018-06-24T08:12:03.079Z,2.50
2018-06-24T08:14:32.629Z,2.25
2018-06-24T08:17:02.746Z,2.40
2018-06-24T08:19:32.387Z,2.60
2018-06-24T08:22:02.163Z,1.90
2018-06-24T08:24:31.915Z,2.30
2018-06-24T08:27:01.917Z,2.08
2018-06-24T08:29:31.434Z,2.25
2018-06-24T08:32:01.194Z,2.33
2018-06-24T08:34:31.382Z,2.20
2018-06-24T08:37:01.124Z,2.27
2018-06-24T08:39:30.801Z,2.20
2018-06-24T08:42:00.554Z,2.22
2018-06-24T08:44:30.052Z,1.70
2018-06-24T08:47:00.078Z,1.57
2018-06-24T08:49:29.839Z,1.20
2018-06-24T08:51:59.920Z,1.37
2018-06-24T08:54:29.678Z,1.32
2018-06-24T08:56:59.556Z,1.10
2018-06-24T08:59:29.104Z,1.00
2018-06-24T09:01:59.096Z,1.27
2018-06-24T09:04:28.537Z,1.10
2018-06-24T09:06:58.114Z,1.30
2018-06-24T09:09:27.594Z,1.00
2018-06-24T09:14:48.883Z,1.20
2018-06-24T09:17:18.901Z,1.10
2018-06-24T09:19:48.537Z,1.10
2018-06-24T09:22:18.185Z,1.20
2018-06-24T09:24:47.769Z,1.22
2018-06-24T09:27:17.296Z,1.40
2018-06-24T09:29:47.435Z,1.10
2018-06-24T09:32:17.089Z,1.20
2018-06-24T09:34:46.466Z,1.15
2018-06-24T09:37:16.376Z,1.15
2018-06-24T09:39:45.909Z,1.55
2018-06-24T09:42:15.562Z,1.67
2018-06-24T09:44:45.082Z,1.40
2018-06-24T09:47:14.572Z,1.52
2018-06-24T09:49:44.058Z,1.80
2018-06-24T09:52:13.584Z,1.95
2018-06-24T09:54:42.859Z,1.70
2018-06-24T09:57:12.544Z,1.98
2018-06-24T09:59:42.288Z,1.72
2018-06-24T10:02:11.917Z,1.80
2018-06-24T10:04:41.560Z,2.27
2018-06-24T10:07:11.269Z,1.80
2018-06-24T10:09:41.026Z,2.10
2018-06-24T10:12:10.772Z,1.77
2018-06-24T10:14:40.635Z,1.60
2018-06-24T10:17:10.299Z,1.90
2018-06-24T10:19:39.919Z,2.05
2018-06-24T10:22:09.131Z,1.72
2018-06-24T10:24:38.761Z,1.77
2018-06-24T10:27:08.416Z,1.90
2018-06-24T10:29:38.097Z,2.10
2018-06-24T10:32:07.913Z,2.00
2018-06-24T10:34:37.513Z,1.77
2018-06-24T10:37:07.533Z,1.45
2018-06-24T10:39:37.175Z,1.50
2018-06-24T10:42:06.553Z,1.42
2018-06-24T10:44:36.115Z,1.10
2018-06-24T10:47:05.840Z,1.40
2018-06-24T10:49:36.423Z,1.20
2018-06-24T10:52:06.156Z,1.10
2018-06-24T10:54:36.387Z,1.30
2018-06-24T10:57:06.318Z,0.90
2018-06-24T10:59:35.892Z,1.10
2018-06-24T11:02:05.757Z,1.05
2018-06-24T11:04:35.273Z,0.88
2018-06-24T11:07:04.913Z,1.00
2018-06-24T11:09:34.473Z,1.00
2018-06-24T11:12:04.354Z,1.15
2018-06-24T11:14:34.157Z,1.10
2018-06-24T11:17:03.699Z,1.05
2018-06-24T11:19:33.671Z,1.00
2018-06-24T11:22:03.276Z,1.00
2018-06-24T11:24:33.049Z,1.22
2018-06-24T11:27:02.808Z,0.95
2018-06-24T11:29:32.546Z,1.15
2018-06-24T11:32:02.532Z,1.22
2018-06-24T11:34:32.029Z,1.30
2018-06-24T11:37:02.236Z,0.95
2018-06-24T11:39:31.787Z,1.20
2018-06-24T11:42:01.564Z,1.50
2018-06-24T11:44:31.202Z,1.52
2018-06-24T11:47:01.407Z,1.85
2018-06-24T11:49:31.431Z,1.12
2018-06-24T11:52:01.512Z,1.22
2018-06-24T11:54:31.037Z,0.90
2018-06-24T11:57:01.092Z,0.98
2018-06-24T11:59:30.703Z,1.02
2018-06-24T12:02:00.462Z,1.00
2018-06-24T12:04:30.041Z,0.90
2018-06-24T12:07:00.126Z,1.02
2018-06-24T12:09:29.676Z,1.05
2018-06-24T12:11:59.596Z,1.10
2018-06-24T12:14:29.383Z,1.20
2018-06-24T12:16:59.116Z,1.00
2018-06-24T12:19:28.906Z,0.95
2018-06-24T12:21:58.919Z,0.98
2018-06-24T12:24:30.025Z,1.05
2018-06-24T12:26:59.778Z,1.00
2018-06-24T12:29:29.426Z,1.15
2018-06-24T12:31:59.143Z,0.90
2018-06-24T12:34:28.460Z,1.20
2018-06-24T12:36:58.293Z,1.20
2018-06-24T12:39:27.667Z,1.10
2018-06-24T12:41:57.761Z,1.00
2018-06-24T12:44:27.451Z,0.98
2018-06-24T12:46:57.261Z,0.90
2018-06-24T12:49:27.603Z,0.85
2018-06-24T12:51:57.386Z,0.90
2018-06-24T12:54:27.540Z,0.95
2018-06-24T12:56:56.921Z,1.00
2018-06-24T12:59:27.205Z,0.85
2018-06-24T13:01:56.446Z,0.85
2018-06-24T13:04:26.014Z,0.80
2018-06-24T13:06:55.527Z,0.90
2018-06-24T13:09:25.680Z,1.00
2018-06-24T13:11:55.430Z,0.85
2018-06-24T13:14:25.008Z,0.90
2018-06-24T13:16:54.654Z,1.05
2018-06-24T13:19:24.826Z,0.88
2018-06-24T13:21:55.120Z,1.00
2018-06-24T13:24:25.584Z,0.90
2018-06-24T13:26:55.093Z,1.35
2018-06-24T13:29:27.600Z,1.27
2018-06-24T13:31:57.426Z,0.88
2018-06-24T13:34:27.125Z,0.70
2018-06-24T13:36:56.801Z,0.80
2018-06-24T13:39:27.354Z,1.20
2018-06-24T13:41:57.434Z,0.88
2018-06-24T13:44:28.346Z,0.90
2018-06-24T13:46:58.869Z,0.88
2018-06-24T13:49:28.588Z,1.10
2018-06-24T13:51:59.268Z,1.00
2018-06-24T13:54:29.244Z,1.10
2018-06-24T13:56:59.846Z,1.40
2018-06-24T13:59:29.527Z,1.10
2018-06-24T14:02:00.307Z,0.98
2018-06-24T14:04:30.174Z,1.00
2018-06-24T14:07:01.227Z,1.02
2018-06-24T14:09:31.456Z,0.93
2018-06-24T14:12:03.001Z,1.07
2018-06-24T14:14:32.663Z,1.00
2018-06-24T14:17:02.298Z,1.12
2018-06-24T14:19:31.994Z,1.00
2018-06-24T14:22:01.788Z,1.00
2018-06-24T14:24:31.621Z,1.20
2018-06-24T14:27:01.241Z,1.10
2018-06-24T14:29:31.060Z,1.15
2018-06-24T14:32:00.880Z,1.10
2018-06-24T14:34:32.099Z,1.32
2018-06-24T14:37:01.981Z,1.20
2018-06-24T14:39:31.713Z,1.20
2018-06-24T14:42:01.178Z,1.30
2018-06-24T14:44:30.980Z,1.10
2018-06-24T14:47:00.495Z,1.22
2018-06-24T14:49:30.178Z,0.98
2018-06-24T14:51:59.739Z,1.05
2018-06-24T14:54:29.376Z,1.10
2018-06-24T14:57:02.023Z,1.00
2018-06-24T14:59:31.997Z,0.80
2018-06-24T15:02:01.845Z,0.90
2018-06-24T15:04:31.558Z,0.98
2018-06-24T15:07:01.237Z,1.07
2018-06-24T15:09:30.917Z,0.90
2018-06-24T15:12:00.547Z,1.05
2018-06-24T15:14:30.205Z,1.00
2018-06-24T15:16:59.866Z,1.10
2018-06-24T15:19:29.833Z,0.85
2018-06-24T15:21:59.761Z,0.80
2018-06-24T15:24:29.683Z,0.95
2018-06-24T15:26:59.443Z,0.80
2018-06-24T15:29:29.354Z,0.85
2018-06-24T15:31:58.999Z,0.95
2018-06-24T15:34:28.571Z,0.93
2018-06-24T15:36:58.110Z,0.90
2018-06-24T15:39:27.765Z,1.07
2018-06-24T15:41:57.531Z,1.02
2018-06-24T15:44:27.331Z,1.10
2018-06-24T15:46:57.033Z,1.00
2018-06-24T15:49:26.725Z,0.90
2018-06-24T15:51:56.387Z,0.88
2018-06-24T15:54:26.335Z,1.00
2018-06-24T15:56:56.087Z,0.70
2018-06-24T15:59:25.768Z,1.00
2018-06-24T16:01:55.550Z,1.00
2018-06-24T16:04:25.337Z,1.00
2018-06-24T16:06:55.909Z,1.00
2018-06-24T16:09:25.662Z,0.90
2018-06-24T16:11:55.070Z,1.10
2018-06-24T16:14:24.873Z,1.12
2018-06-24T16:16:54.783Z,0.90
2018-06-24T16:19:24.545Z,1.20
2018-06-24T16:21:54.277Z,1.20
2018-06-24T16:24:23.908Z,1.30
2018-06-24T16:26:53.470Z,1.30
2018-06-24T16:29:23.085Z,1.20
2018-06-24T16:31:53.171Z,1.42
2018-06-24T16:34:24.328Z,1.25
2018-06-24T16:36:54.036Z,1.42
2018-06-24T16:39:24.447Z,1.50
2018-06-24T16:41:54.075Z,1.37
2018-06-24T16:44:23.783Z,1.37
2018-06-24T16:46:53.451Z,1.30
2018-06-24T16:49:23.127Z,1.40
2018-06-24T16:51:52.761Z,1.40
2018-06-24T16:54:22.435Z,1.60
2018-06-24T16:56:52.405Z,1.40
2018-06-24T16:59:22.083Z,1.55
2018-06-24T17:01:51.933Z,1.60
2018-06-24T17:04:21.460Z,1.42
2018-06-24T17:06:51.014Z,1.80
2018-06-24T17:09:21.195Z,1.30
2018-06-24T17:11:50.821Z,1.55
2018-06-24T17:14:20.476Z,1.55
2018-06-24T17:16:50.259Z,1.50
2018-06-24T17:19:19.776Z,1.50
2018-06-24T17:21:49.439Z,1.37
2018-06-24T17:24:19.600Z,1.65
2018-06-24T17:26:49.281Z,1.60
2018-06-24T17:29:18.941Z,1.70
2018-06-24T17:31:48.483Z,1.60
2018-06-24T17:34:18.164Z,1.70
2018-06-24T17:36:48.043Z,1.92
2018-06-24T17:39:17.828Z,1.75
2018-06-24T17:41:47.970Z,2.20
2018-06-24T17:44:18.783Z,1.90
2018-06-24T17:46:48.397Z,2.08
2018-06-24T17:49:18.329Z,1.50
2018-06-24T17:51:48.303Z,1.80
2018-06-24T17:54:18.171Z,1.87
2018-06-24T17:56:47.778Z,1.77
2018-06-24T17:59:17.367Z,2.00
2018-06-24T18:01:47.192Z,1.77
2018-06-24T18:04:17.804Z,2.00
2018-06-24T18:06:48.285Z,2.00
2018-06-24T18:09:18.202Z,1.90
2018-06-24T18:11:47.723Z,2.25
2018-06-24T18:14:17.469Z,1.92
2018-06-24T18:16:47.293Z,2.20
2018-06-24T18:19:17.043Z,2.37
2018-06-24T18:21:46.822Z,2.20
2018-06-24T18:24:16.501Z,2.30
2018-06-24T18:26:46.357Z,2.12
2018-06-24T18:29:16.085Z,2.17
2018-06-24T18:31:45.845Z,2.20
2018-06-24T18:34:15.987Z,2.55
2018-06-24T18:36:46.021Z,2.20
2018-06-24T18:39:15.798Z,2.40
2018-06-24T18:41:45.877Z,2.42
2018-06-24T18:44:15.588Z,2.22
2018-06-24T18:46:45.465Z,2.10
2018-06-24T18:49:15.490Z,2.60
2018-06-24T18:51:45.699Z,2.45
2018-06-24T18:54:15.393Z,2.70
2018-06-24T18:56:45.068Z,2.30
2018-06-24T18:59:15.220Z,2.40
2018-06-24T19:01:45.191Z,2.50
2018-06-24T19:04:15.306Z,2.42
2018-06-24T19:06:45.848Z,2.30
2018-06-24T19:09:16.185Z,2.77
2018-06-24T19:11:46.669Z,2.40
2018-06-24T19:14:16.643Z,2.30
2018-06-24T19:16:46.396Z,2.80
2018-06-24T19:19:16.205Z,2.47
2018-06-24T19:21:47.179Z,2.60
2018-06-24T19:24:17.944Z,2.60
2018-06-24T19:26:47.579Z,2.50
2018-06-24T19:29:17.858Z,1.90
2018-06-24T19:31:47.875Z,2.67
2018-06-24T19:34:18.181Z,2.63
2018-06-24T19:36:48.264Z,2.37
2018-06-24T19:39:18.838Z,3.00
2018-06-24T19:41:49.566Z,2.53
2018-06-24T19:44:19.468Z,2.43
2018-06-24T19:46:49.213Z,2.67
2018-06-24T19:49:19.415Z,2.40
2018-06-24T19:51:49.361Z,2.70
2018-06-24T19:54:19.506Z,2.80
2018-06-24T19:56:49.520Z,2.60
2018-06-24T19:59:19.598Z,2.43
2018-06-24T20:01:49.527Z,2.50
2018-06-24T20:04:20.408Z,2.70
2018-06-24T20:06:50.337Z,2.97
2018-06-24T20:09:19.991Z,2.60
2018-06-24T20:11:49.567Z,2.67
2018-06-24T20:14:19.461Z,2.30
2018-06-24T20:16:49.539Z,2.60
2018-06-24T20:19:19.279Z,2.43
2018-06-24T20:21:49.375Z,2.40
2018-06-24T20:24:19.121Z,2.73
2018-06-24T20:26:48.888Z,2.73
2018-06-24T20:29:18.769Z,2.40
2018-06-24T20:31:48.393Z,2.37
2018-06-24T20:34:18.145Z,2.63
2018-06-24T20:36:47.702Z,2.67
2018-06-24T20:39:17.544Z,2.90
2018-06-24T20:41:47.456Z,3.20
2018-06-24T20:44:17.290Z,2.90
2018-06-24T20:46:47.634Z,2.47
2018-06-24T20:49:17.789Z,2.20
2018-06-24T20:51:47.383Z,3.00
2018-06-24T20:54:16.974Z,2.90
2018-06-24T20:56:47.319Z,2.90
2018-06-24T20:59:17.141Z,2.90
2018-06-24T21:01:47.192Z,2.70
2018-06-24T21:04:16.914Z,2.90
2018-06-24T21:06:47.382Z,2.70
2018-06-24T21:09:17.477Z,2.93
2018-06-24T21:11:47.232Z,2.63
2018-06-24T21:14:16.927Z,2.80
2018-06-24T21:16:46.693Z,2.80
2018-06-24T21:19:16.420Z,2.40
2018-06-24T21:21:46.227Z,2.80
2018-06-24T21:24:16.263Z,2.90
2018-06-24T21:26:46.007Z,3.00
2018-06-24T21:29:17.339Z,2.93
2018-06-24T21:31:47.105Z,3.00
2018-06-24T21:34:18.343Z,3.00
2018-06-24T21:36:48.016Z,3.17
2018-06-24T21:39:19.138Z,3.57
2018-06-24T21:41:49.443Z,3.23
2018-06-24T21:44:20.731Z,3.60
2018-06-24T21:46:51.090Z,3.80
2018-06-24T21:49:21.317Z,3.60
2018-06-24T21:51:51.443Z,3.40
2018-06-24T21:54:21.315Z,3.77
2018-06-24T21:56:51.191Z,3.20
2018-06-24T21:59:21.601Z,3.67
2018-06-24T22:01:51.763Z,3.70
2018-06-24T22:04:21.675Z,3.83
2018-06-24T22:06:51.617Z,4.13
2018-06-24T22:09:21.207Z,4.40
2018-06-24T22:11:51.079Z,4.10
2018-06-24T22:14:20.675Z,4.40
2018-06-24T22:16:50.276Z,4.50
2018-06-24T22:19:19.934Z,3.80
2018-06-24T22:21:49.982Z,3.40
2018-06-24T22:24:20.261Z,4.00
2018-06-24T22:26:50.500Z,4.27
2018-06-24T22:29:20.582Z,4.50
2018-06-24T22:31:50.328Z,3.97
2018-06-24T22:34:20.579Z,3.80
2018-06-24T22:36:50.801Z,4.63
2018-06-24T22:39:20.637Z,4.10
2018-06-24T22:41:50.991Z,3.93
2018-06-24T22:44:20.904Z,3.57
2018-06-24T22:46:50.848Z,3.40
2018-06-24T22:49:20.769Z,4.60
2018-06-24T22:51:50.649Z,3.87
2018-06-24T22:54:20.208Z,3.80
2018-06-24T22:56:49.860Z,3.10
2018-06-24T22:59:29.856Z,3.60
2018-06-24T23:01:59.655Z,3.17
2018-06-24T23:04:29.081Z,3.00
2018-06-24T23:06:58.898Z,3.10
2018-06-24T23:09:28.932Z,3.13
2018-06-24T23:11:58.537Z,3.00
2018-06-24T23:14:28.083Z,2.53
2018-06-24T23:16:57.615Z,2.63
2018-06-24T23:19:27.137Z,2.73
2018-06-24T23:21:56.757Z,3.10
2018-06-24T23:24:26.154Z,3.50
2018-06-24T23:26:56.036Z,3.30
2018-06-24T23:29:25.849Z,3.30
2018-06-24T23:31:55.453Z,3.33
2018-06-24T23:34:25.203Z,3.30
2018-06-24T23:36:54.971Z,3.37
2018-06-24T23:39:24.773Z,3.17
2018-06-24T23:41:54.258Z,3.13
2018-06-24T23:44:23.896Z,2.90
2018-06-24T23:46:54.411Z,3.53
2018-06-24T23:49:24.421Z,3.50
2018-06-24T23:51:54.149Z,3.30
2018-06-24T23:54:23.626Z,3.23
2018-06-24T23:56:53.789Z,3.30
2018-06-24T23:59:23.308Z,3.33
